AZU4010 SBKP-SBIL
Flight info
| Callsign | AZU4010 |
|---|---|
| Flight time | 1h 39m |
| Altitude | 39000 |
| Route | KONVI UZ23 UTLON DCT DALOX |
| Aircraft | A20N/M-SDE2E3FGHIRWXY/LB1 |
Departure
| Time | 2026-04-20 17:50 |
|---|---|
| Airport | Viracopos International Airport (SBKP) |
Arrival
| Time | 2026-04-20 19:29 |
|---|---|
| Airport | Bahia - Jorge Amado Airport (SBIL) |
| Time | Latitude | Longitude | Altitude | Speed | Heading |
|---|---|---|---|---|---|
| 2026-04-20 17:26 | -23.00386 | -47.14898 | 2178 ft | 0 kts | 216° |
| 2026-04-20 17:40 | -23.00372 | -47.14885 | 2178 ft | 3 kts | 215° |
| 2026-04-20 17:41 | -23.00353 | -47.14867 | 2178 ft | 3 kts | 243° |
| 2026-04-20 17:41 | -23.00354 | -47.14841 | 2178 ft | 3 kts | 297° |
| 2026-04-20 17:41 | -23.00357 | -47.14835 | 2178 ft | 0 kts | 309° |
| 2026-04-20 17:46 | -23.00351 | -47.14843 | 2178 ft | 3 kts | 309° |
| 2026-04-20 17:46 | -23.00330 | -47.14870 | 2178 ft | 6 kts | 309° |
| 2026-04-20 17:46 | -23.00298 | -47.14913 | 2177 ft | 8 kts | 309° |
| 2026-04-20 17:47 | -23.00256 | -47.14970 | 2177 ft | 10 kts | 309° |
| 2026-04-20 17:47 | -23.00187 | -47.15002 | 2177 ft | 12 kts | 14° |
| 2026-04-20 17:47 | -23.00114 | -47.14947 | 2177 ft | 13 kts | 39° |
| 2026-04-20 17:47 | -23.00041 | -47.14883 | 2177 ft | 13 kts | 38° |
| 2026-04-20 17:48 | -22.99981 | -47.14806 | 2177 ft | 13 kts | 47° |
| 2026-04-20 17:48 | -22.99911 | -47.14738 | 2177 ft | 13 kts | 54° |
| 2026-04-20 17:48 | -22.99895 | -47.14642 | 2177 ft | 13 kts | 106° |
| 2026-04-20 17:48 | -22.99946 | -47.14556 | 2178 ft | 13 kts | 126° |
| 2026-04-20 17:49 | -23.00047 | -47.14418 | 2178 ft | 49 kts | 130° |
| 2026-04-20 17:49 | -23.00397 | -47.13937 | 2179 ft | 109 kts | 127° |
| 2026-04-20 17:49 | -23.00979 | -47.13133 | 2181 ft | 158 kts | 129° |
| 2026-04-20 17:49 | -23.01728 | -47.12128 | 2411 ft | 177 kts | 130° |
| 2026-04-20 17:50 | -23.02503 | -47.11097 | 2887 ft | 182 kts | 129° |
| 2026-04-20 17:50 | -23.03102 | -47.09933 | 3537 ft | 179 kts | 98° |
| 2026-04-20 17:50 | -23.02827 | -47.08643 | 4077 ft | 182 kts | 65° |
| 2026-04-20 17:50 | -23.02212 | -47.07374 | 4364 ft | 196 kts | 66° |
| 2026-04-20 17:51 | -23.01660 | -47.05962 | 4645 ft | 210 kts | 71° |
| 2026-04-20 17:51 | -23.01197 | -47.04416 | 4932 ft | 225 kts | 75° |
| 2026-04-20 17:51 | -23.00716 | -47.02712 | 5158 ft | 247 kts | 66° |
| 2026-04-20 17:51 | -22.99713 | -47.01152 | 5525 ft | 265 kts | 44° |
| 2026-04-20 17:52 | -22.98226 | -46.99884 | 6019 ft | 278 kts | 37° |
| 2026-04-20 17:52 | -22.96644 | -46.98631 | 6759 ft | 281 kts | 37° |
| 2026-04-20 17:52 | -22.95076 | -46.97382 | 7418 ft | 284 kts | 38° |
| 2026-04-20 17:52 | -22.93478 | -46.96093 | 7830 ft | 286 kts | 38° |
| 2026-04-20 17:53 | -22.91899 | -46.94810 | 7984 ft | 287 kts | 38° |
| 2026-04-20 17:53 | -22.90294 | -46.93478 | 7993 ft | 287 kts | 40° |
| 2026-04-20 17:53 | -22.88770 | -46.92085 | 8130 ft | 293 kts | 42° |
| 2026-04-20 17:53 | -22.87196 | -46.90623 | 8864 ft | 296 kts | 42° |
| 2026-04-20 17:54 | -22.85651 | -46.89185 | 9692 ft | 296 kts | 42° |
| 2026-04-20 17:54 | -22.84098 | -46.87743 | 10383 ft | 300 kts | 42° |
| 2026-04-20 17:54 | -22.82454 | -46.86217 | 10802 ft | 316 kts | 42° |
| 2026-04-20 17:54 | -22.80750 | -46.84636 | 11124 ft | 334 kts | 42° |
| 2026-04-20 17:55 | -22.78924 | -46.82944 | 11474 ft | 350 kts | 42° |
| 2026-04-20 17:55 | -22.77098 | -46.81177 | 12068 ft | 356 kts | 45° |
| 2026-04-20 17:55 | -22.75343 | -46.79293 | 12745 ft | 359 kts | 47° |
| 2026-04-20 17:55 | -22.73581 | -46.77365 | 13391 ft | 363 kts | 48° |
| 2026-04-20 17:56 | -22.71800 | -46.75412 | 14018 ft | 367 kts | 48° |
| 2026-04-20 17:56 | -22.70009 | -46.73424 | 14637 ft | 370 kts | 51° |
| 2026-04-20 17:56 | -22.68625 | -46.71122 | 15212 ft | 369 kts | 70° |
| 2026-04-20 17:56 | -22.68024 | -46.68453 | 15817 ft | 366 kts | 89° |
| 2026-04-20 17:57 | -22.68017 | -46.65698 | 16435 ft | 367 kts | 94° |
| 2026-04-20 17:57 | -22.68075 | -46.62948 | 17004 ft | 371 kts | 94° |
| 2026-04-20 17:57 | -22.68129 | -46.60129 | 17587 ft | 374 kts | 94° |
| 2026-04-20 17:57 | -22.68170 | -46.57322 | 18160 ft | 377 kts | 93° |
| 2026-04-20 17:58 | -22.68204 | -46.54471 | 18710 ft | 381 kts | 93° |
| 2026-04-20 17:58 | -22.68233 | -46.51599 | 19232 ft | 385 kts | 93° |
| 2026-04-20 17:58 | -22.68258 | -46.48704 | 19760 ft | 389 kts | 92° |
| 2026-04-20 17:58 | -22.68282 | -46.45766 | 20296 ft | 392 kts | 92° |
| 2026-04-20 17:59 | -22.68305 | -46.42820 | 20824 ft | 396 kts | 92° |
| 2026-04-20 17:59 | -22.68326 | -46.39852 | 21352 ft | 399 kts | 92° |
| 2026-04-20 17:59 | -22.68351 | -46.36834 | 21870 ft | 402 kts | 92° |
| 2026-04-20 17:59 | -22.68374 | -46.33817 | 22379 ft | 405 kts | 92° |
| 2026-04-20 18:00 | -22.68397 | -46.30729 | 22883 ft | 408 kts | 92° |
| 2026-04-20 18:00 | -22.68417 | -46.27689 | 23350 ft | 412 kts | 92° |
| 2026-04-20 18:00 | -22.68437 | -46.24560 | 23828 ft | 415 kts | 92° |
| 2026-04-20 18:00 | -22.68422 | -46.21463 | 24262 ft | 419 kts | 88° |
| 2026-04-20 18:01 | -22.67756 | -46.18351 | 24635 ft | 428 kts | 68° |
| 2026-04-20 18:01 | -22.66184 | -46.15605 | 25065 ft | 434 kts | 50° |
| 2026-04-20 18:01 | -22.63939 | -46.13403 | 25508 ft | 438 kts | 40° |
| 2026-04-20 18:01 | -22.61540 | -46.11332 | 25892 ft | 442 kts | 39° |
| 2026-04-20 18:02 | -22.59133 | -46.09260 | 26300 ft | 445 kts | 39° |
| 2026-04-20 18:02 | -22.56724 | -46.07171 | 26708 ft | 448 kts | 40° |
| 2026-04-20 18:02 | -22.54295 | -46.05048 | 27088 ft | 450 kts | 40° |
| 2026-04-20 18:02 | -22.51847 | -46.02897 | 27464 ft | 453 kts | 40° |
| 2026-04-20 18:03 | -22.49398 | -46.00741 | 27809 ft | 457 kts | 40° |
| 2026-04-20 18:03 | -22.46925 | -45.98563 | 28154 ft | 460 kts | 40° |
| 2026-04-20 18:03 | -22.44447 | -45.96379 | 28503 ft | 462 kts | 40° |
| 2026-04-20 18:03 | -22.41936 | -45.94168 | 28837 ft | 465 kts | 40° |
| 2026-04-20 18:04 | -22.39431 | -45.91961 | 29175 ft | 468 kts | 40° |
| 2026-04-20 18:04 | -22.36901 | -45.89736 | 29503 ft | 471 kts | 41° |
| 2026-04-20 18:04 | -22.34341 | -45.87485 | 29832 ft | 473 kts | 41° |
| 2026-04-20 18:04 | -22.31791 | -45.85243 | 30229 ft | 474 kts | 41° |
| 2026-04-20 18:05 | -22.26689 | -45.80770 | 31058 ft | 474 kts | 41° |
| 2026-04-20 18:05 | -22.24139 | -45.78561 | 31433 ft | 474 kts | 41° |
| 2026-04-20 18:05 | -22.21539 | -45.76318 | 31823 ft | 475 kts | 41° |
| 2026-04-20 18:06 | -22.18964 | -45.74098 | 32174 ft | 475 kts | 41° |
| 2026-04-20 18:06 | -22.16383 | -45.71870 | 32503 ft | 477 kts | 41° |
| 2026-04-20 18:06 | -22.13800 | -45.69642 | 32832 ft | 477 kts | 41° |
| 2026-04-20 18:06 | -22.11195 | -45.67394 | 33200 ft | 478 kts | 41° |
| 2026-04-20 18:07 | -22.08602 | -45.65159 | 33622 ft | 476 kts | 41° |
| 2026-04-20 18:07 | -22.06041 | -45.62952 | 34040 ft | 475 kts | 41° |
| 2026-04-20 18:07 | -22.03452 | -45.60723 | 34444 ft | 474 kts | 41° |
| 2026-04-20 18:07 | -22.00884 | -45.58511 | 34820 ft | 473 kts | 41° |
| 2026-04-20 18:08 | -21.98304 | -45.56289 | 35153 ft | 473 kts | 41° |
| 2026-04-20 18:08 | -21.95755 | -45.54095 | 35471 ft | 472 kts | 41° |
| 2026-04-20 18:08 | -21.93184 | -45.51885 | 35787 ft | 472 kts | 41° |
| 2026-04-20 18:08 | -21.90614 | -45.49675 | 36083 ft | 472 kts | 41° |
| 2026-04-20 18:09 | -21.88021 | -45.47447 | 36342 ft | 472 kts | 41° |
| 2026-04-20 18:09 | -21.85463 | -45.45248 | 36575 ft | 472 kts | 41° |
| 2026-04-20 18:09 | -21.82912 | -45.43058 | 36797 ft | 472 kts | 41° |
| 2026-04-20 18:09 | -21.80340 | -45.40850 | 37019 ft | 472 kts | 41° |
| 2026-04-20 18:10 | -21.77778 | -45.38654 | 37239 ft | 472 kts | 42° |
| 2026-04-20 18:10 | -21.75205 | -45.36447 | 37436 ft | 472 kts | 41° |
| 2026-04-20 18:10 | -21.72628 | -45.34239 | 37598 ft | 473 kts | 41° |
| 2026-04-20 18:10 | -21.70035 | -45.32017 | 37790 ft | 473 kts | 41° |
| 2026-04-20 18:11 | -21.67483 | -45.29835 | 37983 ft | 473 kts | 41° |
| 2026-04-20 18:11 | -21.64887 | -45.27615 | 38165 ft | 473 kts | 41° |
| 2026-04-20 18:11 | -21.62318 | -45.25420 | 38312 ft | 474 kts | 41° |
| 2026-04-20 18:11 | -21.59750 | -45.23224 | 38489 ft | 473 kts | 41° |
| 2026-04-20 18:12 | -21.57171 | -45.21018 | 38669 ft | 473 kts | 42° |
| 2026-04-20 18:12 | -21.54584 | -45.18811 | 38827 ft | 473 kts | 41° |
| 2026-04-20 18:12 | -21.52033 | -45.16630 | 38942 ft | 474 kts | 41° |
| 2026-04-20 18:12 | -21.49430 | -45.14407 | 39071 ft | 475 kts | 41° |
| 2026-04-20 18:13 | -21.44275 | -45.10012 | 39122 ft | 476 kts | 41° |
| 2026-04-20 18:13 | -21.39086 | -45.05594 | 39119 ft | 475 kts | 41° |
| 2026-04-20 18:14 | -21.33899 | -45.01177 | 39116 ft | 476 kts | 41° |
| 2026-04-20 18:14 | -21.28706 | -44.96762 | 39116 ft | 477 kts | 41° |
| 2026-04-20 18:15 | -21.23522 | -44.92360 | 39117 ft | 476 kts | 41° |
| 2026-04-20 18:15 | -21.18317 | -44.87943 | 39110 ft | 476 kts | 41° |
| 2026-04-20 18:16 | -21.13127 | -44.83540 | 39112 ft | 477 kts | 41° |
| 2026-04-20 18:16 | -21.07945 | -44.79149 | 39115 ft | 477 kts | 41° |
| 2026-04-20 18:17 | -21.02624 | -44.74834 | 39117 ft | 478 kts | 38° |
| 2026-04-20 18:17 | -20.97223 | -44.70715 | 39116 ft | 479 kts | 38° |
| 2026-04-20 18:18 | -20.91793 | -44.66578 | 39119 ft | 478 kts | 38° |
| 2026-04-20 18:18 | -20.86363 | -44.62434 | 39121 ft | 478 kts | 38° |
| 2026-04-20 18:19 | -20.80959 | -44.58312 | 39123 ft | 479 kts | 38° |
| 2026-04-20 18:19 | -20.75551 | -44.54192 | 39136 ft | 478 kts | 38° |
| 2026-04-20 18:20 | -20.70110 | -44.50050 | 39135 ft | 478 kts | 38° |
| 2026-04-20 18:20 | -20.64722 | -44.45947 | 39130 ft | 478 kts | 38° |
| 2026-04-20 18:21 | -20.59278 | -44.41808 | 39117 ft | 478 kts | 38° |
| 2026-04-20 18:21 | -20.53879 | -44.37707 | 39112 ft | 478 kts | 38° |
| 2026-04-20 18:22 | -20.48451 | -44.33586 | 39102 ft | 478 kts | 37° |
| 2026-04-20 18:22 | -20.43014 | -44.29453 | 39100 ft | 478 kts | 38° |
| 2026-04-20 18:23 | -20.37679 | -44.25230 | 39105 ft | 478 kts | 39° |
| 2026-04-20 18:23 | -20.32371 | -44.20996 | 39103 ft | 478 kts | 39° |
| 2026-04-20 18:24 | -20.27015 | -44.16743 | 39103 ft | 479 kts | 38° |
| 2026-04-20 18:24 | -20.21697 | -44.12532 | 39110 ft | 478 kts | 38° |
| 2026-04-20 18:25 | -20.16364 | -44.08314 | 39110 ft | 478 kts | 38° |
| 2026-04-20 18:25 | -20.11028 | -44.04096 | 39104 ft | 477 kts | 38° |
| 2026-04-20 18:26 | -20.05675 | -43.99873 | 39121 ft | 477 kts | 38° |
| 2026-04-20 18:26 | -20.00332 | -43.95667 | 39121 ft | 478 kts | 38° |
| 2026-04-20 18:27 | -19.95009 | -43.91481 | 39125 ft | 478 kts | 38° |
| 2026-04-20 18:27 | -19.89636 | -43.87257 | 39119 ft | 478 kts | 38° |
| 2026-04-20 18:28 | -19.84256 | -43.83104 | 39110 ft | 479 kts | 36° |
| 2026-04-20 18:28 | -19.78734 | -43.79097 | 39103 ft | 480 kts | 35° |
| 2026-04-20 18:29 | -19.73203 | -43.75103 | 39095 ft | 479 kts | 36° |
| 2026-04-20 18:29 | -19.67713 | -43.71133 | 39095 ft | 480 kts | 35° |
| 2026-04-20 18:30 | -19.62206 | -43.67150 | 39092 ft | 479 kts | 35° |
| 2026-04-20 18:30 | -19.56694 | -43.63166 | 39093 ft | 480 kts | 35° |
| 2026-04-20 18:31 | -19.51146 | -43.59163 | 39092 ft | 480 kts | 35° |
| 2026-04-20 18:31 | -19.45629 | -43.55181 | 39095 ft | 480 kts | 35° |
| 2026-04-20 18:32 | -19.40105 | -43.51202 | 39098 ft | 480 kts | 35° |
| 2026-04-20 18:32 | -19.34580 | -43.47225 | 39095 ft | 480 kts | 35° |
| 2026-04-20 18:33 | -19.29142 | -43.43182 | 39088 ft | 479 kts | 37° |
| 2026-04-20 18:33 | -19.23789 | -43.38929 | 39077 ft | 479 kts | 38° |
| 2026-04-20 18:34 | -19.18495 | -43.34712 | 39063 ft | 479 kts | 38° |
| 2026-04-20 18:34 | -19.13145 | -43.30462 | 39049 ft | 478 kts | 37° |
| 2026-04-20 18:35 | -19.07826 | -43.26243 | 39047 ft | 478 kts | 37° |
| 2026-04-20 18:35 | -19.02521 | -43.22040 | 39038 ft | 479 kts | 37° |
| 2026-04-20 18:36 | -18.97165 | -43.17801 | 39042 ft | 479 kts | 37° |
| 2026-04-20 18:36 | -18.91858 | -43.13602 | 39047 ft | 479 kts | 37° |
| 2026-04-20 18:37 | -18.86499 | -43.09367 | 39058 ft | 479 kts | 37° |
| 2026-04-20 18:37 | -18.81167 | -43.05156 | 39069 ft | 478 kts | 37° |
| 2026-04-20 18:38 | -18.75842 | -43.00952 | 39079 ft | 477 kts | 37° |
| 2026-04-20 18:38 | -18.70554 | -42.96773 | 39086 ft | 477 kts | 37° |
| 2026-04-20 18:39 | -18.65232 | -42.92572 | 39086 ft | 477 kts | 37° |
| 2026-04-20 18:39 | -18.59903 | -42.88370 | 39085 ft | 477 kts | 37° |
| 2026-04-20 18:40 | -18.54609 | -42.84199 | 39076 ft | 478 kts | 37° |
| 2026-04-20 18:40 | -18.49241 | -42.79979 | 39071 ft | 479 kts | 37° |
| 2026-04-20 18:41 | -18.43910 | -42.75792 | 39063 ft | 479 kts | 37° |
| 2026-04-20 18:41 | -18.38581 | -42.71611 | 39058 ft | 479 kts | 37° |
| 2026-04-20 18:42 | -18.33231 | -42.67412 | 39060 ft | 478 kts | 37° |
| 2026-04-20 18:42 | -18.27917 | -42.63247 | 39057 ft | 478 kts | 37° |
| 2026-04-20 18:43 | -18.22579 | -42.59067 | 39056 ft | 478 kts | 37° |
| 2026-04-20 18:43 | -18.17237 | -42.54888 | 39059 ft | 477 kts | 37° |
| 2026-04-20 18:44 | -18.11923 | -42.50731 | 39055 ft | 477 kts | 37° |
| 2026-04-20 18:44 | -18.06594 | -42.46567 | 39046 ft | 478 kts | 37° |
| 2026-04-20 18:45 | -18.01258 | -42.42404 | 39042 ft | 478 kts | 37° |
| 2026-04-20 18:45 | -17.95924 | -42.38242 | 39036 ft | 477 kts | 37° |
| 2026-04-20 18:46 | -17.90575 | -42.34071 | 39041 ft | 478 kts | 36° |
| 2026-04-20 18:46 | -17.85215 | -42.29895 | 39043 ft | 478 kts | 36° |
| 2026-04-20 18:47 | -17.79895 | -42.25756 | 39056 ft | 478 kts | 36° |
| 2026-04-20 18:47 | -17.74539 | -42.21590 | 39059 ft | 478 kts | 36° |
| 2026-04-20 18:48 | -17.69184 | -42.17428 | 39061 ft | 477 kts | 36° |
| 2026-04-20 18:48 | -17.63865 | -42.13298 | 39059 ft | 478 kts | 36° |
| 2026-04-20 18:49 | -17.58506 | -42.09138 | 39055 ft | 477 kts | 36° |
| 2026-04-20 18:49 | -17.53192 | -42.05017 | 39047 ft | 478 kts | 36° |
| 2026-04-20 18:50 | -17.47850 | -42.00879 | 39054 ft | 478 kts | 36° |
| 2026-04-20 18:50 | -17.42477 | -41.96717 | 39047 ft | 478 kts | 36° |
| 2026-04-20 18:51 | -17.37119 | -41.92566 | 39038 ft | 479 kts | 36° |
| 2026-04-20 18:51 | -17.31789 | -41.88440 | 39037 ft | 479 kts | 36° |
| 2026-04-20 18:52 | -17.26432 | -41.84297 | 39040 ft | 478 kts | 36° |
| 2026-04-20 18:52 | -17.21098 | -41.80172 | 39043 ft | 478 kts | 36° |
| 2026-04-20 18:53 | -17.15721 | -41.76019 | 39044 ft | 479 kts | 36° |
| 2026-04-20 18:53 | -17.10381 | -41.71897 | 39049 ft | 478 kts | 36° |
| 2026-04-20 18:54 | -17.05034 | -41.67771 | 39046 ft | 478 kts | 35° |
| 2026-04-20 18:54 | -16.99662 | -41.63631 | 39046 ft | 478 kts | 35° |
| 2026-04-20 18:55 | -16.94333 | -41.59529 | 39039 ft | 477 kts | 35° |
| 2026-04-20 18:55 | -16.88997 | -41.55421 | 39027 ft | 478 kts | 35° |
| 2026-04-20 18:56 | -16.83625 | -41.51288 | 39020 ft | 477 kts | 35° |
| 2026-04-20 18:56 | -16.78289 | -41.47188 | 39016 ft | 478 kts | 35° |
| 2026-04-20 18:57 | -16.72950 | -41.43076 | 39013 ft | 478 kts | 36° |
| 2026-04-20 18:57 | -16.67895 | -41.38540 | 39009 ft | 479 kts | 44° |
| 2026-04-20 18:58 | -16.63291 | -41.33464 | 39003 ft | 480 kts | 47° |
| 2026-04-20 18:58 | -16.58778 | -41.28349 | 38996 ft | 480 kts | 47° |
| 2026-04-20 18:59 | -16.54267 | -41.23265 | 38987 ft | 480 kts | 47° |
| 2026-04-20 18:59 | -16.49722 | -41.18159 | 38987 ft | 480 kts | 46° |
| 2026-04-20 19:00 | -16.45183 | -41.13066 | 38997 ft | 480 kts | 46° |
| 2026-04-20 19:00 | -16.40652 | -41.07987 | 39000 ft | 481 kts | 46° |
| 2026-04-20 19:01 | -16.38347 | -41.05407 | 38699 ft | 481 kts | 46° |
| 2026-04-20 19:01 | -16.36102 | -41.02896 | 38388 ft | 478 kts | 46° |
| 2026-04-20 19:01 | -16.33834 | -41.00355 | 38098 ft | 475 kts | 46° |
| 2026-04-20 19:01 | -16.31583 | -40.97836 | 37809 ft | 473 kts | 46° |
| 2026-04-20 19:02 | -16.29369 | -40.95360 | 37525 ft | 472 kts | 46° |
| 2026-04-20 19:02 | -16.27133 | -40.92860 | 37238 ft | 471 kts | 46° |
| 2026-04-20 19:02 | -16.24880 | -40.90344 | 36949 ft | 471 kts | 46° |
| 2026-04-20 19:02 | -16.22644 | -40.87846 | 36664 ft | 471 kts | 46° |
| 2026-04-20 19:03 | -16.20426 | -40.85367 | 36381 ft | 471 kts | 46° |
| 2026-04-20 19:03 | -16.18201 | -40.82882 | 36097 ft | 471 kts | 46° |
| 2026-04-20 19:03 | -16.15970 | -40.80392 | 35812 ft | 471 kts | 46° |
| 2026-04-20 19:03 | -16.13721 | -40.77883 | 35526 ft | 471 kts | 46° |
| 2026-04-20 19:04 | -16.11502 | -40.75408 | 35245 ft | 471 kts | 46° |
| 2026-04-20 19:04 | -16.09272 | -40.72921 | 34963 ft | 471 kts | 46° |
| 2026-04-20 19:04 | -16.07039 | -40.70433 | 34681 ft | 472 kts | 46° |
| 2026-04-20 19:04 | -16.04800 | -40.67938 | 34394 ft | 472 kts | 46° |
| 2026-04-20 19:05 | -16.02562 | -40.65445 | 34013 ft | 472 kts | 46° |
| 2026-04-20 19:05 | -16.00305 | -40.62932 | 33508 ft | 473 kts | 46° |
| 2026-04-20 19:05 | -15.98067 | -40.60440 | 32900 ft | 474 kts | 46° |
| 2026-04-20 19:05 | -15.95827 | -40.57949 | 32303 ft | 475 kts | 46° |
| 2026-04-20 19:06 | -15.93561 | -40.55430 | 31658 ft | 476 kts | 46° |
| 2026-04-20 19:06 | -15.91318 | -40.52934 | 30996 ft | 477 kts | 46° |
| 2026-04-20 19:06 | -15.89056 | -40.50420 | 30293 ft | 479 kts | 46° |
| 2026-04-20 19:06 | -15.86745 | -40.47852 | 29556 ft | 481 kts | 46° |
| 2026-04-20 19:07 | -15.84482 | -40.45337 | 28819 ft | 482 kts | 45° |
| 2026-04-20 19:07 | -15.82197 | -40.42800 | 28035 ft | 483 kts | 45° |
| 2026-04-20 19:07 | -15.79917 | -40.40272 | 27402 ft | 479 kts | 45° |
| 2026-04-20 19:07 | -15.77640 | -40.37745 | 26876 ft | 473 kts | 45° |
| 2026-04-20 19:08 | -15.75424 | -40.35286 | 26349 ft | 468 kts | 45° |
| 2026-04-20 19:08 | -15.71009 | -40.30391 | 25283 ft | 459 kts | 45° |
| 2026-04-20 19:08 | -15.68836 | -40.27983 | 24767 ft | 454 kts | 45° |
| 2026-04-20 19:09 | -15.66686 | -40.25602 | 24247 ft | 450 kts | 45° |
| 2026-04-20 19:09 | -15.64555 | -40.23243 | 23735 ft | 445 kts | 45° |
| 2026-04-20 19:09 | -15.62459 | -40.20923 | 23242 ft | 441 kts | 45° |
| 2026-04-20 19:09 | -15.60379 | -40.18621 | 22756 ft | 436 kts | 45° |
| 2026-04-20 19:10 | -15.58324 | -40.16350 | 22272 ft | 432 kts | 45° |
| 2026-04-20 19:10 | -15.56258 | -40.14113 | 21757 ft | 428 kts | 44° |
| 2026-04-20 19:10 | -15.54189 | -40.11895 | 21241 ft | 425 kts | 44° |
| 2026-04-20 19:10 | -15.52135 | -40.09697 | 20725 ft | 421 kts | 44° |
| 2026-04-20 19:11 | -15.50106 | -40.07525 | 20216 ft | 417 kts | 45° |
| 2026-04-20 19:11 | -15.48121 | -40.05398 | 19715 ft | 413 kts | 45° |
| 2026-04-20 19:11 | -15.46131 | -40.03262 | 19204 ft | 410 kts | 45° |
| 2026-04-20 19:11 | -15.44154 | -40.01142 | 18703 ft | 407 kts | 45° |
| 2026-04-20 19:12 | -15.42197 | -39.99044 | 18212 ft | 404 kts | 45° |
| 2026-04-20 19:12 | -15.40247 | -39.96953 | 17699 ft | 401 kts | 45° |
| 2026-04-20 19:12 | -15.38329 | -39.94896 | 17212 ft | 398 kts | 45° |
| 2026-04-20 19:12 | -15.36398 | -39.92828 | 16736 ft | 395 kts | 45° |
| 2026-04-20 19:13 | -15.34489 | -39.90782 | 16259 ft | 392 kts | 45° |
| 2026-04-20 19:13 | -15.32617 | -39.88776 | 15769 ft | 390 kts | 45° |
| 2026-04-20 19:13 | -15.30731 | -39.86757 | 15288 ft | 387 kts | 45° |
| 2026-04-20 19:13 | -15.28877 | -39.84774 | 14786 ft | 384 kts | 45° |
| 2026-04-20 19:14 | -15.27015 | -39.82782 | 14336 ft | 381 kts | 45° |
| 2026-04-20 19:14 | -15.25187 | -39.80825 | 13853 ft | 378 kts | 45° |
| 2026-04-20 19:14 | -15.23365 | -39.78877 | 13360 ft | 375 kts | 45° |
| 2026-04-20 19:14 | -15.21551 | -39.76937 | 12893 ft | 373 kts | 46° |
| 2026-04-20 19:15 | -15.19760 | -39.75022 | 12413 ft | 370 kts | 46° |
| 2026-04-20 19:15 | -15.17975 | -39.73114 | 11929 ft | 367 kts | 46° |
| 2026-04-20 19:15 | -15.16218 | -39.71238 | 11460 ft | 364 kts | 46° |
| 2026-04-20 19:15 | -15.14458 | -39.69357 | 10986 ft | 361 kts | 46° |
| 2026-04-20 19:16 | -15.12724 | -39.67504 | 10588 ft | 355 kts | 46° |
| 2026-04-20 19:16 | -15.11035 | -39.65701 | 10402 ft | 342 kts | 46° |
| 2026-04-20 19:16 | -15.09407 | -39.63962 | 10247 ft | 330 kts | 46° |
| 2026-04-20 19:16 | -15.07841 | -39.62289 | 10103 ft | 317 kts | 47° |
| 2026-04-20 19:17 | -15.06324 | -39.60671 | 9960 ft | 306 kts | 47° |
| 2026-04-20 19:17 | -15.04857 | -39.59105 | 9622 ft | 302 kts | 47° |
| 2026-04-20 19:17 | -15.03402 | -39.57554 | 9272 ft | 299 kts | 47° |
| 2026-04-20 19:17 | -15.01966 | -39.56022 | 8930 ft | 295 kts | 47° |
| 2026-04-20 19:18 | -15.00557 | -39.54500 | 8576 ft | 293 kts | 49° |
| 2026-04-20 19:18 | -14.99260 | -39.52888 | 8217 ft | 290 kts | 54° |
| 2026-04-20 19:18 | -14.98029 | -39.51223 | 7861 ft | 289 kts | 54° |
| 2026-04-20 19:18 | -14.96826 | -39.49579 | 7506 ft | 287 kts | 54° |
| 2026-04-20 19:19 | -14.95627 | -39.47941 | 7160 ft | 285 kts | 54° |
| 2026-04-20 19:19 | -14.94431 | -39.46307 | 6797 ft | 283 kts | 54° |
| 2026-04-20 19:19 | -14.93250 | -39.44698 | 6451 ft | 281 kts | 54° |
| 2026-04-20 19:19 | -14.92067 | -39.43090 | 6111 ft | 278 kts | 54° |
| 2026-04-20 19:20 | -14.90899 | -39.41500 | 5775 ft | 273 kts | 54° |
| 2026-04-20 19:20 | -14.89776 | -39.39974 | 5451 ft | 261 kts | 54° |
| 2026-04-20 19:20 | -14.88698 | -39.38512 | 5139 ft | 249 kts | 55° |
| 2026-04-20 19:20 | -14.87658 | -39.37100 | 4842 ft | 246 kts | 55° |
| 2026-04-20 19:21 | -14.86624 | -39.35694 | 4544 ft | 242 kts | 55° |
| 2026-04-20 19:21 | -14.85607 | -39.34312 | 4253 ft | 239 kts | 55° |
| 2026-04-20 19:21 | -14.84617 | -39.32968 | 4014 ft | 234 kts | 55° |
| 2026-04-20 19:21 | -14.83649 | -39.31656 | 3971 ft | 220 kts | 55° |
| 2026-04-20 19:22 | -14.82774 | -39.30436 | 3961 ft | 204 kts | 63° |
| 2026-04-20 19:22 | -14.82291 | -39.29138 | 3986 ft | 188 kts | 82° |
| 2026-04-20 19:22 | -14.82193 | -39.27840 | 3796 ft | 178 kts | 91° |
| 2026-04-20 19:22 | -14.82173 | -39.26623 | 3644 ft | 158 kts | 92° |
| 2026-04-20 19:23 | -14.82160 | -39.25553 | 3486 ft | 140 kts | 92° |
| 2026-04-20 19:23 | -14.82146 | -39.24558 | 3382 ft | 138 kts | 92° |
| 2026-04-20 19:23 | -14.82128 | -39.23575 | 3276 ft | 138 kts | 92° |
| 2026-04-20 19:23 | -14.82108 | -39.22576 | 3168 ft | 137 kts | 92° |
| 2026-04-20 19:24 | -14.82085 | -39.21600 | 3057 ft | 137 kts | 92° |
| 2026-04-20 19:24 | -14.82061 | -39.20605 | 2961 ft | 137 kts | 92° |
| 2026-04-20 19:24 | -14.82038 | -39.19624 | 2883 ft | 137 kts | 91° |
| 2026-04-20 19:24 | -14.82011 | -39.18639 | 2791 ft | 137 kts | 92° |
| 2026-04-20 19:25 | -14.81986 | -39.17650 | 2624 ft | 137 kts | 91° |
| 2026-04-20 19:25 | -14.81960 | -39.16677 | 2397 ft | 136 kts | 91° |
| 2026-04-20 19:25 | -14.81933 | -39.15703 | 2218 ft | 136 kts | 91° |
| 2026-04-20 19:25 | -14.81907 | -39.14726 | 2034 ft | 135 kts | 92° |
| 2026-04-20 19:26 | -14.81881 | -39.13759 | 1856 ft | 135 kts | 92° |
| 2026-04-20 19:26 | -14.81855 | -39.12780 | 1669 ft | 135 kts | 92° |
| 2026-04-20 19:26 | -14.81831 | -39.11814 | 1492 ft | 134 kts | 91° |
| 2026-04-20 19:26 | -14.81803 | -39.10851 | 1306 ft | 134 kts | 92° |
| 2026-04-20 19:27 | -14.81780 | -39.09891 | 1136 ft | 134 kts | 91° |
| 2026-04-20 19:27 | -14.81754 | -39.08936 | 955 ft | 134 kts | 91° |
| 2026-04-20 19:27 | -14.81730 | -39.07973 | 802 ft | 133 kts | 91° |
| 2026-04-20 19:27 | -14.81702 | -39.07016 | 769 ft | 133 kts | 91° |
| 2026-04-20 19:28 | -14.81669 | -39.06057 | 575 ft | 134 kts | 90° |
| 2026-04-20 19:28 | -14.81627 | -39.05102 | 290 ft | 132 kts | 91° |
| 2026-04-20 19:28 | -14.81608 | -39.04172 | 81 ft | 131 kts | 91° |
| 2026-04-20 19:28 | -14.81593 | -39.03302 | 26 ft | 88 kts | 90° |
| 2026-04-20 19:29 | -14.81586 | -39.02978 | 26 ft | 3 kts | 89° |
| 2026-04-20 19:29 | -14.81585 | -39.02900 | 26 ft | 12 kts | 90° |
| 2026-04-20 19:29 | -14.81585 | -39.02808 | 26 ft | 13 kts | 88° |
| 2026-04-20 19:29 | -14.81580 | -39.02710 | 26 ft | 13 kts | 92° |
| 2026-04-20 19:30 | -14.81609 | -39.02624 | 26 ft | 9 kts | 94° |
| 2026-04-20 19:30 | -14.81572 | -39.02610 | 26 ft | 8 kts | 306° |
| 2026-04-20 19:30 | -14.81569 | -39.02673 | 26 ft | 9 kts | 262° |
| 2026-04-20 19:30 | -14.81574 | -39.02745 | 26 ft | 10 kts | 269° |
| 2026-04-20 19:31 | -14.81576 | -39.02824 | 26 ft | 11 kts | 269° |
| 2026-04-20 19:31 | -14.81578 | -39.02912 | 26 ft | 12 kts | 268° |
| 2026-04-20 19:31 | -14.81581 | -39.03009 | 26 ft | 13 kts | 268° |
| 2026-04-20 19:31 | -14.81532 | -39.03083 | 26 ft | 14 kts | 347° |
| 2026-04-20 19:32 | -14.81482 | -39.03131 | 26 ft | 10 kts | 275° |
| 2026-04-20 19:32 | -14.81487 | -39.03202 | 26 ft | 10 kts | 266° |
| 2026-04-20 19:32 | -14.81461 | -39.03242 | 27 ft | 2 kts | 9° |
| 2026-04-20 19:32 | -14.81450 | -39.03233 | 27 ft | 2 kts | 42° |
| 2026-04-20 19:33 | -14.81441 | -39.03225 | 27 ft | 0 kts | 41° |